TimeEDT,TemperatureF,Dew PointF,Humidity,Sea Level PressureIn,VisibilityMPH,Wind Direction,Wind SpeedMPH,Gust SpeedMPH,PrecipitationIn,Events,Conditions,WindDirDegrees,DateUTC
12:15 AM,66.2,62.6,88,29.87,2.0,South,6.9,-,N/A,,Overcast,170,2013-08-02 04:15:00
12:35 AM,66.2,62.6,88,29.86,2.0,SSE,5.8,-,N/A,,Overcast,160,2013-08-02 04:35:00
12:55 AM,66.2,64.4,94,29.85,2.0,SSE,6.9,-,0.02,Thunderstorm,Overcast,160,2013-08-02 04:55:00
1:15 AM,66.2,64.4,94,29.85,1.8,South,6.9,-,0.01,Thunderstorm,Overcast,180,2013-08-02 05:15:00
1:35 AM,66.2,64.4,94,29.84,2.5,SSE,4.6,-,0.18,,Overcast,160,2013-08-02 05:35:00
1:55 AM,66.2,64.4,94,29.84,2.5,Calm,Calm,-,N/A,Thunderstorm,Overcast,0,2013-08-02 05:55:00
2:15 AM,66.2,64.4,94,29.83,3.0,Calm,Calm,-,N/A,,Overcast,0,2013-08-02 06:15:00
2:35 AM,66.2,64.4,94,29.82,5.0,Calm,Calm,-,N/A,,Overcast,0,2013-08-02 06:35:00
2:55 AM,66.2,64.4,94,29.82,5.0,Calm,Calm,-,N/A,,Overcast,0,2013-08-02 06:55:00
3:15 AM,66.2,62.6,88,29.82,5.0,North,3.5,-,N/A,,Overcast,350,2013-08-02 07:15:00
3:35 AM,66.2,62.6,88,29.82,8.0,NNW,3.5,-,N/A,,Overcast,340,2013-08-02 07:35:00
3:55 AM,66.2,62.6,88,29.82,3.0,NNW,4.6,-,N/A,,Overcast,340,2013-08-02 07:55:00
4:15 AM,66.2,62.6,88,29.82,0.8,NNW,3.5,-,N/A,,Overcast,340,2013-08-02 08:15:00
4:35 AM,66.2,62.6,88,29.82,2.5,NNW,3.5,-,N/A,,Overcast,340,2013-08-02 08:35:00
4:55 AM,66.2,62.6,88,29.84,9.0,NW,3.5,-,N/A,,Overcast,310,2013-08-02 08:55:00
5:15 AM,64.4,62.6,94,29.84,10.0,NW,3.5,-,N/A,,Mostly Cloudy,310,2013-08-02 09:15:00
5:35 AM,64.4,60.8,88,29.85,8.0,Calm,Calm,-,N/A,,Mostly Cloudy,0,2013-08-02 09:35:00
5:45 AM,64.4,60.8,88,29.85,7.0,Calm,Calm,-,N/A,,Scattered Clouds,0,2013-08-02 09:45:00
6:10 AM,64.4,60.8,88,29.86,0.5,Calm,Calm,-,N/A,Fog,Fog,0,2013-08-02 10:10:00
6:55 AM,64.4,60.8,88,29.87,7.0,Calm,Calm,-,N/A,,Scattered Clouds,0,2013-08-02 10:55:00
7:45 AM,66.2,62.6,88,29.88,10.0,NW,3.5,-,N/A,,Clear,320,2013-08-02 11:45:00
8:45 AM,68.0,62.6,83,29.90,10.0,NNW,6.9,-,N/A,,Partly Cloudy,340,2013-08-02 12:45:00
9:45 AM,71.6,62.6,73,29.91,10.0,NNW,6.9,-,N/A,,Partly Cloudy,330,2013-08-02 13:45:00
10:45 AM,73.4,64.4,73,29.91,10.0,WNW,6.9,-,N/A,,Scattered Clouds,300,2013-08-02 14:45:00
11:15 AM,73.4,62.6,69,29.93,10.0,NW,6.9,-,N/A,,Scattered Clouds,320,2013-08-02 15:15:00
11:55 AM,75.2,62.6,65,29.93,10.0,NW,5.8,-,N/A,,Scattered Clouds,310,2013-08-02 15:55:00
12:45 PM,75.2,64.4,69,29.93,10.0,NW,6.9,-,N/A,,Scattered Clouds,310,2013-08-02 16:45:00
1:45 PM,77.0,60.8,57,29.91,10.0,WNW,9.2,-,N/A,,Mostly Cloudy,300,2013-08-02 17:45:00
2:45 PM,78.8,60.8,54,29.91,10.0,West,8.1,17.3,N/A,,Mostly Cloudy,280,2013-08-02 18:45:00
3:45 PM,78.8,57.2,47,29.91,10.0,West,8.1,18.4,N/A,,Partly Cloudy,280,2013-08-02 19:45:00
4:45 PM,78.8,59.0,51,29.90,10.0,WNW,6.9,18.4,N/A,,Clear,300,2013-08-02 20:45:00
5:45 PM,77.0,60.8,57,29.90,10.0,West,6.9,17.3,N/A,,Scattered Clouds,270,2013-08-02 21:45:00
6:45 PM,73.4,60.8,65,29.90,10.0,West,6.9,-,N/A,,Scattered Clouds,270,2013-08-02 22:45:00
7:45 PM,73.4,60.8,65,29.91,10.0,Calm,Calm,-,N/A,,Clear,0,2013-08-02 23:45:00